Time;durP1;ratioP1;P1;durP2;ratioP2;P2;SDS_P1;SDS_P2;PMS_P1;PMS_P2;Temp;Humidity;BMP_temperature;BMP_pressure;BME280_temperature;BME280_humidity;BME280_pressure;Samples;Min_cycle;Max_cycle;Signal;HPM_P1;HPM_P2
2021/12/11 00:01:03;;;;;;;29.55;18.50;;;;;;;;;;4992550;28;92679;-72
2021/12/11 00:03:32;;;;;;;28.15;20.15;;;;;;;;;;4996975;28;92941;-72
2021/12/11 00:06:12;;;;;;;32.97;21.30;;;;;;;;;;5004920;28;92701;-72
2021/12/11 00:08:38;;;;;;;24.15;18.02;;;;;;;;;;4993802;28;92487;-72
2021/12/11 00:11:07;;;;;;;32.08;20.15;;;;;;;;;;5013314;28;96060;-71
2021/12/11 00:13:38;;;;;;;27.48;20.25;;;;;;;;;;5009785;28;96210;-72
2021/12/11 00:16:06;;;;;;;28.10;19.95;;;;;;;;;;5006658;28;94127;-72
2021/12/11 00:18:33;;;;;;;34.50;20.90;;;;;;;;;;5012483;28;94325;-73
2021/12/11 00:21:01;;;;;;;30.25;20.58;;;;;;;;;;4993515;28;93015;-73
2021/12/11 00:23:57;;;;;;;29.60;19.70;;;;;;;;;;4996662;28;93115;-73
2021/12/11 00:26:34;;;;;;;32.20;20.77;;;;;;;;;;4983806;28;93391;-73
2021/12/11 00:29:02;;;;;;;24.55;19.27;;;;;;;;;;5012107;28;92761;-73
2021/12/11 00:31:29;;;;;;;29.88;19.85;;;;;;;;;;5010167;28;94156;-73
2021/12/11 00:33:56;;;;;;;31.70;19.88;;;;;;;;;;4973126;28;94198;-72
2021/12/11 00:36:24;;;;;;;32.97;20.88;;;;;;;;;;4997266;28;92550;-72
2021/12/11 00:38:52;;;;;;;26.17;20.40;;;;;;;;;;4993327;28;96648;-71
2021/12/11 00:41:20;;;;;;;27.33;20.08;;;;;;;;;;5001782;28;92531;-71
2021/12/11 00:43:48;;;;;;;27.73;21.40;;;;;;;;;;4972596;28;93115;-72
2021/12/11 00:46:16;;;;;;;34.25;21.83;;;;;;;;;;4982720;28;94596;-71
2021/12/11 00:48:43;;;;;;;29.80;20.75;;;;;;;;;;4992900;28;92459;-71
2021/12/11 00:51:13;;;;;;;25.65;19.27;;;;;;;;;;4997348;28;94094;-72
2021/12/11 00:53:50;;;;;;;31.40;18.48;;;;;;;;;;5007981;28;93437;-72
2021/12/11 00:56:28;;;;;;;32.80;20.13;;;;;;;;;;5009806;28;91792;-72
2021/12/11 00:58:56;;;;;;;33.25;20.05;;;;;;;;;;5006689;28;95141;-72
2021/12/11 01:01:25;;;;;;;27.42;22.38;;;;;;;;;;5012536;28;92555;-72
2021/12/11 01:04:03;;;;;;;36.75;20.48;;;;;;;;;;5009566;28;95178;-72
2021/12/11 01:06:32;;;;;;;32.75;20.55;;;;;;;;;;5009090;28;93885;-73
2021/12/11 01:09:03;;;;;;;34.42;20.08;;;;;;;;;;5005885;28;94120;-73
2021/12/11 01:11:34;;;;;;;34.63;20.92;;;;;;;;;;5011594;28;93364;-73
2021/12/11 01:14:15;;;;;;;26.83;20.13;;;;;;;;;;5010885;28;94137;-72
2021/12/11 01:16:43;;;;;;;37.40;22.38;;;;;;;;;;5012458;28;92546;-72
2021/12/11 01:19:17;;;;;;;40.83;22.08;;;;;;;;;;5001068;28;96474;-72
2021/12/11 01:21:56;;;;;;;39.78;21.50;;;;;;;;;;5009412;28;92526;-72
2021/12/11 01:24:46;;;;;;;28.23;21.50;;;;;;;;;;5000419;28;92976;-72
2021/12/11 01:27:14;;;;;;;23.80;19.02;;;;;;;;;;5009724;28;93451;-73
2021/12/11 01:29:41;;;;;;;27.67;18.50;;;;;;;;;;4995825;28;94996;-71
2021/12/11 01:32:08;;;;;;;36.70;21.20;;;;;;;;;;4995321;28;96935;-72
2021/12/11 01:34:34;;;;;;;34.88;21.73;;;;;;;;;;5008649;28;94269;-71
2021/12/11 01:37:01;;;;;;;30.33;21.17;;;;;;;;;;5001131;28;92521;-71
2021/12/11 01:39:30;;;;;;;29.63;20.45;;;;;;;;;;5000096;27;93074;-71
2021/12/11 01:41:58;;;;;;;38.83;21.38;;;;;;;;;;5007857;28;94031;-71
2021/12/11 01:44:29;;;;;;;33.50;19.95;;;;;;;;;;5014930;28;92463;-71
2021/12/11 01:47:01;;;;;;;33.28;20.98;;;;;;;;;;5010393;28;93968;-71
2021/12/11 01:49:29;;;;;;;29.00;19.67;;;;;;;;;;5010443;28;92588;-72
2021/12/11 01:51:57;;;;;;;28.70;19.45;;;;;;;;;;5001495;28;93012;-72
2021/12/11 01:54:24;;;;;;;28.10;18.85;;;;;;;;;;5004431;28;96541;-72
2021/12/11 01:56:54;;;;;;;27.20;19.13;;;;;;;;;;5004371;28;93894;-72
2021/12/11 01:59:23;;;;;;;28.63;18.98;;;;;;;;;;5010100;28;93996;-72
2021/12/11 02:01:57;;;;;;;26.35;19.23;;;;;;;;;;5011059;28;94273;-72
2021/12/11 02:04:25;;;;;;;26.50;19.77;;;;;;;;;;5004729;28;92519;-71
2021/12/11 02:06:52;;;;;;;28.20;18.90;;;;;;;;;;4974667;28;94529;-71
2021/12/11 02:09:27;;;;;;;28.90;19.58;;;;;;;;;;4996477;28;92541;-71
2021/12/11 02:12:06;;;;;;;24.38;18.98;;;;;;;;;;5006739;28;93965;-72
2021/12/11 02:14:39;;;;;;;32.13;20.23;;;;;;;;;;4971053;28;94190;-72
2021/12/11 02:17:06;;;;;;;36.45;20.58;;;;;;;;;;4990979;28;93011;-72
2021/12/11 02:19:38;;;;;;;31.55;21.55;;;;;;;;;;5008230;28;95603;-71
2021/12/11 02:22:10;;;;;;;31.95;20.33;;;;;;;;;;5000465;28;94138;-72
2021/12/11 02:24:44;;;;;;;39.63;21.67;;;;;;;;;;4991442;28;92476;-72
2021/12/11 02:27:17;;;;;;;28.33;21.70;;;;;;;;;;4995268;28;95081;-71
2021/12/11 02:29:47;;;;;;;33.25;21.45;;;;;;;;;;5001455;28;92474;-72
2021/12/11 02:32:16;;;;;;;27.83;20.90;;;;;;;;;;5004811;28;95454;-72
2021/12/11 02:34:45;;;;;;;33.40;20.25;;;;;;;;;;5011472;28;94372;-72
2021/12/11 02:37:20;;;;;;;28.15;19.80;;;;;;;;;;4997490;28;91784;-72
2021/12/11 02:39:47;;;;;;;32.25;21.40;;;;;;;;;;5007373;28;93594;-72
2021/12/11 02:42:17;;;;;;;29.88;21.95;;;;;;;;;;4999784;28;94634;-72
2021/12/11 02:44:49;;;;;;;36.15;22.67;;;;;;;;;;5000973;28;95850;-72
2021/12/11 02:47:21;;;;;;;38.43;23.97;;;;;;;;;;5009278;28;96725;-72
2021/12/11 02:49:58;;;;;;;40.83;24.80;;;;;;;;;;4993757;28;94775;-72
2021/12/11 02:52:35;;;;;;;37.80;25.73;;;;;;;;;;5006356;28;94227;-72
2021/12/11 02:55:01;;;;;;;33.95;25.08;;;;;;;;;;5014429;28;93418;-72
2021/12/11 02:57:31;;;;;;;35.70;23.17;;;;;;;;;;4996286;28;92526;-72
2021/12/11 03:00:18;;;;;;;34.25;22.98;;;;;;;;;;5008182;28;94043;-72
2021/12/11 03:02:48;;;;;;;27.52;21.63;;;;;;;;;;5014558;28;92654;-72
2021/12/11 03:05:18;;;;;;;31.60;21.40;;;;;;;;;;4994215;28;93033;-72
2021/12/11 03:07:50;;;;;;;36.65;21.80;;;;;;;;;;4994532;28;94452;-72
2021/12/11 03:10:19;;;;;;;29.50;20.70;;;;;;;;;;5007599;28;96664;-72
2021/12/11 03:12:45;;;;;;;33.83;21.20;;;;;;;;;;4996540;28;92760;-72
2021/12/11 03:15:13;;;;;;;31.25;21.05;;;;;;;;;;5007207;28;94175;-71
2021/12/11 03:17:39;;;;;;;26.75;18.95;;;;;;;;;;5011416;28;92478;-71
2021/12/11 03:20:07;;;;;;;28.23;19.23;;;;;;;;;;5005062;28;94054;-71
2021/12/11 03:22:34;;;;;;;27.15;18.42;;;;;;;;;;4994508;28;94270;-71
2021/12/11 03:25:02;;;;;;;24.33;18.25;;;;;;;;;;5013523;28;92792;-72
2021/12/11 03:27:30;;;;;;;27.55;19.33;;;;;;;;;;4994021;28;92224;-72
2021/12/11 03:29:56;;;;;;;32.65;18.58;;;;;;;;;;4996074;28;93389;-72
2021/12/11 03:32:22;;;;;;;31.65;19.52;;;;;;;;;;5008313;28;93193;-72
2021/12/11 03:34:49;;;;;;;28.15;18.70;;;;;;;;;;5015444;28;95998;-72
2021/12/11 03:37:16;;;;;;;28.98;20.45;;;;;;;;;;5001089;28;92614;-72
2021/12/11 03:39:45;;;;;;;28.38;21.02;;;;;;;;;;4992568;28;93105;-71
2021/12/11 03:42:14;;;;;;;29.52;18.38;;;;;;;;;;4987913;28;93651;-71
2021/12/11 03:44:41;;;;;;;30.55;19.27;;;;;;;;;;4984221;28;92430;-70
2021/12/11 03:47:09;;;;;;;25.65;20.00;;;;;;;;;;4995087;28;93406;-72
2021/12/11 03:49:36;;;;;;;30.15;19.30;;;;;;;;;;5002361;28;94611;-72
2021/12/11 03:52:03;;;;;;;30.48;18.98;;;;;;;;;;5008709;28;91795;-72
2021/12/11 03:54:31;;;;;;;32.92;19.13;;;;;;;;;;4992991;28;92821;-72
2021/12/11 03:56:58;;;;;;;31.45;19.58;;;;;;;;;;4998682;28;94352;-72
2021/12/11 03:59:25;;;;;;;29.77;19.02;;;;;;;;;;5011766;28;94839;-72
2021/12/11 04:02:04;;;;;;;28.98;19.20;;;;;;;;;;5007500;28;94694;-72
2021/12/11 04:04:33;;;;;;;25.88;18.23;;;;;;;;;;4989842;28;94333;-72
2021/12/11 04:07:00;;;;;;;26.38;18.63;;;;;;;;;;4995180;28;96319;-72
2021/12/11 04:09:27;;;;;;;30.20;18.40;;;;;;;;;;5011028;28;93464;-72
2021/12/11 04:11:55;;;;;;;29.08;19.45;;;;;;;;;;4976370;28;92927;-72
2021/12/11 04:14:24;;;;;;;29.63;19.75;;;;;;;;;;4972546;28;94153;-72
2021/12/11 04:16:51;;;;;;;25.75;19.45;;;;;;;;;;4973974;28;93983;-72
2021/12/11 04:19:18;;;;;;;22.42;17.45;;;;;;;;;;5010020;28;92710;-72
2021/12/11 04:21:45;;;;;;;26.70;17.38;;;;;;;;;;4984006;28;94441;-71
2021/12/11 04:24:16;;;;;;;24.88;19.02;;;;;;;;;;5001778;28;94958;-72
2021/12/11 04:26:42;;;;;;;24.02;19.38;;;;;;;;;;4973553;28;96432;-71
2021/12/11 04:29:09;;;;;;;27.63;18.55;;;;;;;;;;4999768;28;94619;-72
2021/12/11 04:31:36;;;;;;;32.92;19.33;;;;;;;;;;5012471;28;93004;-72
2021/12/11 04:34:05;;;;;;;24.52;18.05;;;;;;;;;;5012774;28;94669;-72
2021/12/11 04:36:33;;;;;;;25.88;18.70;;;;;;;;;;4993361;28;94438;-72
2021/12/11 04:39:00;;;;;;;28.88;18.70;;;;;;;;;;4996927;27;93909;-72
2021/12/11 04:41:36;;;;;;;28.08;17.52;;;;;;;;;;5004810;28;93474;-72
2021/12/11 04:44:24;;;;;;;32.75;19.02;;;;;;;;;;5003153;28;92542;-72
2021/12/11 04:46:51;;;;;;;29.60;19.88;;;;;;;;;;5003504;28;94069;-72
2021/12/11 04:49:28;;;;;;;28.67;18.35;;;;;;;;;;5010362;28;96476;-72
2021/12/11 04:52:05;;;;;;;30.80;19.95;;;;;;;;;;4997683;28;92647;-72
2021/12/11 04:54:53;;;;;;;25.65;19.05;;;;;;;;;;4995180;28;94901;-72
2021/12/11 04:57:53;;;;;;;31.55;18.67;;;;;;;;;;4972914;28;93591;-73
2021/12/11 05:06:26;;;;;;;26.30;19.20;;;;;;;;;;5002045;28;92534;-72
2021/12/11 05:08:38;;;;;;;33.55;18.52;;;;;;;;;;4999080;28;93652;-72
2021/12/11 05:11:04;;;;;;;28.20;19.83;;;;;;;;;;4994464;28;95873;-72
2021/12/11 05:13:30;;;;;;;26.77;19.52;;;;;;;;;;5014571;28;92516;-72
2021/12/11 05:15:59;;;;;;;22.55;17.75;;;;;;;;;;5013654;28;95006;-71
2021/12/11 05:18:27;;;;;;;28.95;18.50;;;;;;;;;;5015626;28;94130;-71
2021/12/11 05:20:57;;;;;;;33.10;20.95;;;;;;;;;;5008665;28;93945;-71
2021/12/11 05:23:23;;;;;;;36.05;21.20;;;;;;;;;;5003019;28;93990;-72
2021/12/11 05:25:50;;;;;;;44.55;22.73;;;;;;;;;;4992949;28;93936;-72
2021/12/11 05:28:17;;;;;;;43.45;22.10;;;;;;;;;;5010006;28;94849;-72
2021/12/11 05:30:46;;;;;;;34.20;22.05;;;;;;;;;;4995836;28;93524;-72
2021/12/11 05:33:12;;;;;;;54.92;24.75;;;;;;;;;;4994319;28;91861;-71
2021/12/11 05:35:39;;;;;;;37.47;22.48;;;;;;;;;;5012941;28;92599;-71
2021/12/11 05:38:07;;;;;;;45.50;25.17;;;;;;;;;;4998260;28;95473;-71
2021/12/11 05:40:35;;;;;;;47.10;24.52;;;;;;;;;;4992377;28;95939;-71
2021/12/11 05:43:02;;;;;;;48.50;24.45;;;;;;;;;;5001173;28;96218;-71
2021/12/11 05:45:28;;;;;;;49.15;24.50;;;;;;;;;;5009268;28;94507;-70
2021/12/11 05:47:57;;;;;;;56.05;26.48;;;;;;;;;;5015055;28;92509;-70
2021/12/11 05:50:25;;;;;;;39.70;23.27;;;;;;;;;;4994088;28;94585;-70
2021/12/11 05:52:52;;;;;;;47.53;26.20;;;;;;;;;;5011469;28;92500;-70
2021/12/11 05:55:20;;;;;;;44.13;24.63;;;;;;;;;;5007504;28;93301;-70
2021/12/11 05:57:54;;;;;;;64.60;27.20;;;;;;;;;;4993596;28;93793;-70
2021/12/11 06:00:23;;;;;;;47.92;24.77;;;;;;;;;;5007715;28;92609;-70
2021/12/11 06:02:57;;;;;;;54.88;28.38;;;;;;;;;;4995436;28;94233;-70
2021/12/11 06:05:23;;;;;;;74.53;31.63;;;;;;;;;;4989537;28;95753;-72
2021/12/11 06:07:52;;;;;;;82.95;34.53;;;;;;;;;;4985100;28;93192;-71
2021/12/11 06:10:20;;;;;;;78.75;31.83;;;;;;;;;;4988843;28;93419;-71
2021/12/11 06:12:47;;;;;;;61.22;30.23;;;;;;;;;;4988671;28;92804;-72
2021/12/11 06:15:14;;;;;;;66.03;30.15;;;;;;;;;;4994279;28;94415;-73
2021/12/11 06:17:42;;;;;;;80.43;31.67;;;;;;;;;;4978415;28;96385;-71
2021/12/11 06:20:10;;;;;;;68.80;27.45;;;;;;;;;;5001983;28;92498;-71
2021/12/11 06:22:37;;;;;;;64.63;31.00;;;;;;;;;;5005037;28;94091;-72
2021/12/11 06:25:06;;;;;;;50.42;25.92;;;;;;;;;;4991030;28;94475;-70
2021/12/11 06:27:32;;;;;;;64.32;28.13;;;;;;;;;;4992027;28;92539;-72
2021/12/11 06:29:59;;;;;;;79.20;32.92;;;;;;;;;;4992886;28;95970;-72
2021/12/11 06:32:26;;;;;;;89.28;33.55;;;;;;;;;;4998034;28;94425;-72
2021/12/11 06:34:53;;;;;;;84.60;35.10;;;;;;;;;;4994495;28;93403;-72
2021/12/11 06:37:21;;;;;;;79.18;33.60;;;;;;;;;;4995039;28;93426;-73
2021/12/11 06:39:48;;;;;;;73.53;32.25;;;;;;;;;;4995067;28;92484;-72
2021/12/11 06:42:16;;;;;;;97.55;35.88;;;;;;;;;;4993855;28;93355;-73
2021/12/11 06:44:43;;;;;;;85.47;34.33;;;;;;;;;;4994930;28;94736;-73
2021/12/11 06:47:10;;;;;;;96.95;36.75;;;;;;;;;;4996376;27;91770;-73
2021/12/11 06:49:38;;;;;;;126.32;43.85;;;;;;;;;;4994243;28;93430;-73
2021/12/11 06:52:06;;;;;;;135.57;45.63;;;;;;;;;;4997960;28;94236;-73
2021/12/11 06:54:33;;;;;;;118.78;43.20;;;;;;;;;;4992993;28;95195;-73
2021/12/11 06:56:59;;;;;;;78.18;32.85;;;;;;;;;;4981560;28;94582;-73
2021/12/11 06:59:26;;;;;;;77.57;31.27;;;;;;;;;;4975848;28;92507;-73
2021/12/11 07:01:52;;;;;;;53.55;26.45;;;;;;;;;;4995310;28;93554;-73
2021/12/11 07:04:19;;;;;;;59.63;27.75;;;;;;;;;;4994043;28;94025;-74
2021/12/11 07:06:47;;;;;;;76.85;33.47;;;;;;;;;;4995061;28;92449;-73
2021/12/11 07:09:14;;;;;;;68.55;31.48;;;;;;;;;;4994791;28;93193;-73
2021/12/11 07:11:44;;;;;;;59.53;28.83;;;;;;;;;;4992065;27;92754;-73
2021/12/11 07:14:12;;;;;;;104.15;40.50;;;;;;;;;;4997270;28;92601;-74
2021/12/11 07:16:38;;;;;;;80.35;36.75;;;;;;;;;;4994544;28;93698;-74
2021/12/11 07:19:06;;;;;;;66.57;31.25;;;;;;;;;;4992007;28;95315;-74
2021/12/11 07:21:32;;;;;;;70.88;32.70;;;;;;;;;;4994128;28;96393;-74
2021/12/11 07:23:59;;;;;;;83.25;36.08;;;;;;;;;;4993640;28;93359;-74
2021/12/11 07:26:34;;;;;;;87.13;36.50;;;;;;;;;;4994127;28;92569;-74
2021/12/11 07:29:03;;;;;;;78.78;35.78;;;;;;;;;;4994166;28;93940;-74
2021/12/11 07:31:31;;;;;;;114.65;42.33;;;;;;;;;;4993262;28;93398;-74
2021/12/11 07:33:57;;;;;;;92.78;40.30;;;;;;;;;;4994354;28;92897;-74
2021/12/11 07:36:24;;;;;;;99.75;42.47;;;;;;;;;;4997334;28;93589;-74
2021/12/11 07:38:51;;;;;;;91.90;38.47;;;;;;;;;;4992973;28;92459;-74
2021/12/11 07:41:18;;;;;;;99.05;42.97;;;;;;;;;;4993451;28;93404;-74
2021/12/11 07:43:45;;;;;;;81.57;36.03;;;;;;;;;;4992811;28;96608;-74
2021/12/11 07:46:16;;;;;;;99.80;40.42;;;;;;;;;;4993182;28;92511;-73
2021/12/11 07:48:43;;;;;;;94.03;37.72;;;;;;;;;;4993977;28;96012;-73
2021/12/11 07:51:10;;;;;;;71.28;31.73;;;;;;;;;;4993743;28;94365;-73
2021/12/11 07:53:36;;;;;;;88.28;38.03;;;;;;;;;;4992838;28;92488;-73
2021/12/11 07:56:03;;;;;;;119.93;43.30;;;;;;;;;;4994309;28;94355;-73
2021/12/11 07:58:32;;;;;;;99.18;40.97;;;;;;;;;;4999385;28;95463;-74
2021/12/11 08:00:59;;;;;;;89.80;37.97;;;;;;;;;;4994140;28;92228;-74
2021/12/11 08:03:26;;;;;;;96.40;38.35;;;;;;;;;;4993479;28;92486;-74
2021/12/11 08:05:54;;;;;;;100.95;41.38;;;;;;;;;;4993980;28;92463;-74
2021/12/11 08:08:20;;;;;;;95.72;39.63;;;;;;;;;;4991259;28;95227;-74
2021/12/11 08:10:49;;;;;;;104.88;41.22;;;;;;;;;;4993565;28;93502;-74
2021/12/11 08:13:15;;;;;;;101.97;39.78;;;;;;;;;;4992270;28;92595;-74
2021/12/11 08:15:43;;;;;;;105.47;40.67;;;;;;;;;;4993765;28;93346;-74
2021/12/11 08:18:11;;;;;;;87.88;39.10;;;;;;;;;;4992762;28;94019;-74
2021/12/11 08:20:39;;;;;;;106.63;39.88;;;;;;;;;;4995754;28;92474;-74
2021/12/11 08:23:06;;;;;;;137.15;42.17;;;;;;;;;;4993303;28;93780;-73
2021/12/11 08:25:33;;;;;;;114.32;39.97;;;;;;;;;;4993742;28;91794;-74
2021/12/11 08:28:00;;;;;;;117.50;40.50;;;;;;;;;;4992407;28;92936;-74
2021/12/11 08:30:31;;;;;;;98.28;38.72;;;;;;;;;;4992973;28;93112;-74
2021/12/11 08:32:58;;;;;;;110.50;39.85;;;;;;;;;;4991751;28;96037;-74
2021/12/11 08:35:24;;;;;;;99.65;38.97;;;;;;;;;;4992966;28;95632;-74
2021/12/11 08:37:52;;;;;;;76.55;33.20;;;;;;;;;;4993139;28;94485;-74
2021/12/11 08:40:23;;;;;;;70.10;32.65;;;;;;;;;;4993875;28;92463;-74
2021/12/11 08:42:49;;;;;;;73.90;34.28;;;;;;;;;;4993542;28;94384;-73
2021/12/11 08:45:23;;;;;;;92.38;38.20;;;;;;;;;;4992825;28;92488;-74
2021/12/11 08:47:53;;;;;;;89.45;36.83;;;;;;;;;;4993172;28;94125;-72
2021/12/11 08:50:20;;;;;;;73.53;36.38;;;;;;;;;;4991865;28;92438;-72
2021/12/11 08:52:49;;;;;;;73.13;35.83;;;;;;;;;;4995027;28;92456;-73
2021/12/11 08:55:18;;;;;;;105.82;42.40;;;;;;;;;;4995291;28;93978;-73
2021/12/11 08:57:44;;;;;;;87.03;39.17;;;;;;;;;;4991063;28;97232;-74
2021/12/11 09:00:16;;;;;;;98.57;41.20;;;;;;;;;;4992614;27;93410;-73
2021/12/11 09:02:46;;;;;;;98.28;41.97;;;;;;;;;;4995208;28;94719;-72
2021/12/11 09:05:35;;;;;;;97.50;40.88;;;;;;;;;;4995827;28;92438;-72
2021/12/11 09:08:07;;;;;;;80.00;40.30;;;;;;;;;;4990159;28;94213;-73
2021/12/11 09:10:39;;;;;;;87.83;42.00;;;;;;;;;;5010572;28;94022;-73
2021/12/11 09:13:09;;;;;;;91.73;39.93;;;;;;;;;;5012926;28;92677;-73
2021/12/11 09:15:45;;;;;;;93.97;38.58;;;;;;;;;;5012709;28;92990;-72
2021/12/11 09:18:14;;;;;;;125.22;38.88;;;;;;;;;;4986904;28;95208;-74
2021/12/11 09:20:58;;;;;;;134.15;42.28;;;;;;;;;;4994559;28;94081;-72
2021/12/11 09:23:45;;;;;;;137.60;42.78;;;;;;;;;;4989975;28;96012;-73
2021/12/11 09:26:20;;;;;;;189.02;45.65;;;;;;;;;;4979770;28;94529;-73
2021/12/11 09:28:49;;;;;;;467.60;60.13;;;;;;;;;;4991944;28;95174;-73
2021/12/11 09:31:21;;;;;;;398.35;51.10;;;;;;;;;;4991674;28;94502;-73
2021/12/11 09:33:52;;;;;;;483.83;57.72;;;;;;;;;;4992897;27;92539;-73
2021/12/11 09:36:20;;;;;;;475.38;60.55;;;;;;;;;;4991908;28;93150;-72
2021/12/11 09:38:49;;;;;;;313.65;46.20;;;;;;;;;;4991933;28;93443;-73
2021/12/11 09:41:21;;;;;;;499.20;60.50;;;;;;;;;;4992281;28;91711;-75
2021/12/11 09:43:57;;;;;;;419.08;57.38;;;;;;;;;;4991992;28;93678;-74
2021/12/11 09:46:26;;;;;;;626.00;64.38;;;;;;;;;;4991327;28;94391;-73
2021/12/11 09:48:54;;;;;;;636.80;64.63;;;;;;;;;;4993826;28;95230;-73
2021/12/11 09:51:26;;;;;;;633.50;62.25;;;;;;;;;;4990482;28;94211;-73
2021/12/11 09:53:54;;;;;;;339.63;48.07;;;;;;;;;;4992207;28;92765;-73
2021/12/11 09:56:26;;;;;;;537.22;54.38;;;;;;;;;;4993914;28;93226;-73
2021/12/11 09:58:52;;;;;;;799.67;92.60;;;;;;;;;;4992371;28;94209;-73
2021/12/11 10:01:21;;;;;;;490.55;56.05;;;;;;;;;;4994828;28;93385;-73
2021/12/11 10:03:50;;;;;;;836.40;78.82;;;;;;;;;;4992891;28;94093;-72
2021/12/11 10:06:38;;;;;;;488.60;57.08;;;;;;;;;;4991920;28;94144;-75
2021/12/11 10:09:17;;;;;;;455.25;52.97;;;;;;;;;;5005830;28;93994;-74
2021/12/11 10:11:49;;;;;;;457.45;52.97;;;;;;;;;;5014521;28;93406;-74
2021/12/11 10:14:17;;;;;;;280.45;43.33;;;;;;;;;;5005061;28;95122;-74
2021/12/11 10:16:46;;;;;;;554.78;67.82;;;;;;;;;;4992094;28;96767;-75
2021/12/11 10:19:14;;;;;;;44.53;17.42;;;;;;;;;;4991657;28;93113;-73
2021/12/11 10:21:45;;;;;;;379.30;39.65;;;;;;;;;;4991000;28;92451;-75
2021/12/11 10:24:14;;;;;;;512.63;54.65;;;;;;;;;;4992082;28;93257;-72
2021/12/11 10:26:41;;;;;;;313.35;40.30;;;;;;;;;;4991227;28;94184;-73
2021/12/11 10:29:10;;;;;;;514.22;60.85;;;;;;;;;;4992086;28;92535;-73
2021/12/11 10:31:39;;;;;;;375.38;49.85;;;;;;;;;;4991754;28;94076;-74
2021/12/11 10:34:08;;;;;;;520.83;47.25;;;;;;;;;;4994102;28;94192;-73
2021/12/11 10:36:39;;;;;;;410.73;48.10;;;;;;;;;;4991175;28;92529;-74
2021/12/11 10:39:08;;;;;;;400.65;46.30;;;;;;;;;;4989593;28;97023;-73
2021/12/11 10:41:35;;;;;;;356.05;44.25;;;;;;;;;;4992227;28;92671;-73
2021/12/11 10:44:03;;;;;;;277.58;41.90;;;;;;;;;;4991799;28;94509;-74
2021/12/11 10:46:31;;;;;;;500.10;54.50;;;;;;;;;;4985367;28;94533;-74
2021/12/11 10:48:58;;;;;;;499.58;50.90;;;;;;;;;;4970969;28;92464;-74
2021/12/11 10:51:27;;;;;;;493.77;52.53;;;;;;;;;;4975579;28;94066;-75
2021/12/11 10:53:54;;;;;;;211.32;40.05;;;;;;;;;;4990860;28;94240;-74
2021/12/11 10:56:22;;;;;;;127.68;37.42;;;;;;;;;;4993602;28;91741;-73
2021/12/11 10:58:53;;;;;;;228.57;39.92;;;;;;;;;;4991252;28;94856;-74
2021/12/11 11:01:24;;;;;;;218.95;41.78;;;;;;;;;;4990951;28;92500;-74
2021/12/11 11:03:58;;;;;;;241.32;43.33;;;;;;;;;;4988733;28;95078;-74
2021/12/11 11:06:25;;;;;;;143.20;36.50;;;;;;;;;;4998709;28;94509;-74
2021/12/11 11:08:52;;;;;;;149.68;39.13;;;;;;;;;;4988280;28;92931;-75
2021/12/11 11:11:20;;;;;;;195.80;44.53;;;;;;;;;;4972800;28;94166;-74
2021/12/11 11:13:47;;;;;;;115.40;35.15;;;;;;;;;;4972522;28;93688;-74
2021/12/11 11:16:15;;;;;;;95.68;36.25;;;;;;;;;;4996686;28;93256;-74
2021/12/11 11:18:42;;;;;;;153.68;39.08;;;;;;;;;;4994225;28;94726;-74
2021/12/11 11:21:13;;;;;;;105.65;37.85;;;;;;;;;;5000245;28;91747;-74
2021/12/11 11:23:41;;;;;;;77.35;34.40;;;;;;;;;;5013812;28;94033;-74
2021/12/11 11:26:10;;;;;;;66.05;32.28;;;;;;;;;;5014336;28;94178;-74
2021/12/11 11:28:37;;;;;;;66.18;34.38;;;;;;;;;;5012345;28;95491;-73
2021/12/11 11:31:06;;;;;;;66.90;34.08;;;;;;;;;;5013422;28;95978;-74
2021/12/11 11:33:33;;;;;;;68.55;34.40;;;;;;;;;;5013915;28;93991;-73
2021/12/11 11:36:00;;;;;;;65.00;33.95;;;;;;;;;;5007480;28;92949;-74
2021/12/11 11:38:31;;;;;;;44.28;28.75;;;;;;;;;;4989532;27;93297;-74
2021/12/11 11:41:07;;;;;;;58.75;31.63;;;;;;;;;;4993875;28;92806;-74
2021/12/11 11:43:34;;;;;;;53.58;31.48;;;;;;;;;;4992102;28;94368;-73
2021/12/11 11:46:00;;;;;;;50.72;31.10;;;;;;;;;;4993508;28;92739;-72
2021/12/11 11:48:29;;;;;;;49.33;31.23;;;;;;;;;;4993199;28;92568;-73
2021/12/11 11:51:19;;;;;;;51.08;30.40;;;;;;;;;;4993333;28;93126;-73
2021/12/11 11:53:45;;;;;;;47.35;27.65;;;;;;;;;;4989250;28;96558;-71
2021/12/11 11:56:16;;;;;;;54.03;33.00;;;;;;;;;;4992397;28;93107;-72
2021/12/11 11:58:42;;;;;;;51.58;31.05;;;;;;;;;;4991356;28;93891;-72
2021/12/11 12:01:28;;;;;;;54.85;33.53;;;;;;;;;;5007023;28;94203;-73
2021/12/11 12:03:55;;;;;;;53.90;31.70;;;;;;;;;;4990329;28;93801;-72
2021/12/11 12:06:25;;;;;;;49.97;30.42;;;;;;;;;;4995922;28;94468;-73
2021/12/11 12:08:53;;;;;;;46.08;30.65;;;;;;;;;;4990273;28;92418;-73
2021/12/11 12:11:20;;;;;;;52.15;30.40;;;;;;;;;;4997260;28;94403;-73
2021/12/11 12:13:47;;;;;;;53.28;30.48;;;;;;;;;;4989908;28;93434;-73
2021/12/11 12:16:25;;;;;;;41.22;28.67;;;;;;;;;;4993546;28;92450;-73
2021/12/11 12:18:52;;;;;;;47.60;30.60;;;;;;;;;;4984548;28;95389;-72
2021/12/11 12:21:19;;;;;;;43.40;30.20;;;;;;;;;;4986985;28;94259;-73
2021/12/11 12:23:45;;;;;;;48.25;30.65;;;;;;;;;;5002716;28;92605;-72
2021/12/11 12:26:16;;;;;;;42.80;27.17;;;;;;;;;;4988299;28;93419;-72
2021/12/11 12:28:43;;;;;;;46.50;29.20;;;;;;;;;;4989102;28;92918;-72
2021/12/11 12:31:12;;;;;;;52.63;31.95;;;;;;;;;;4990526;28;94620;-72
2021/12/11 12:33:38;;;;;;;49.67;31.40;;;;;;;;;;4991954;28;94216;-73
2021/12/11 12:36:05;;;;;;;51.33;30.52;;;;;;;;;;4982645;28;93671;-72
2021/12/11 12:38:36;;;;;;;50.35;30.88;;;;;;;;;;4987551;28;94372;-73
2021/12/11 12:41:28;;;;;;;50.63;31.65;;;;;;;;;;4996187;28;95781;-72
2021/12/11 12:44:17;;;;;;;47.80;31.13;;;;;;;;;;4997331;28;95531;-72
2021/12/11 12:46:58;;;;;;;;;;;;;;;;;;5016026;28;96457;-72
2021/12/11 12:49:26;;;;;;;42.15;28.95;;;;;;;;;;4993006;28;121042;-72
2021/12/11 12:51:53;;;;;;;50.40;28.80;;;;;;;;;;4981479;28;93874;-73
2021/12/11 12:54:21;;;;;;;40.85;29.52;;;;;;;;;;4995154;28;94371;-72
2021/12/11 12:56:53;;;;;;;48.67;30.55;;;;;;;;;;4989287;28;93510;-72
2021/12/11 12:59:39;;;;;;;47.00;30.23;;;;;;;;;;4990040;28;93974;-72
2021/12/11 13:02:11;;;;;;;57.53;31.95;;;;;;;;;;4973871;28;93601;-71
2021/12/11 13:04:49;;;;;;;46.03;32.25;;;;;;;;;;4987169;28;94390;-73
2021/12/11 13:07:16;;;;;;;46.97;31.23;;;;;;;;;;5000950;28;94408;-73
2021/12/11 13:09:45;;;;;;;46.58;31.20;;;;;;;;;;4976618;28;96267;-74
2021/12/11 13:12:17;;;;;;;43.20;30.02;;;;;;;;;;4986083;28;96407;-72
2021/12/11 13:14:45;;;;;;;44.65;28.60;;;;;;;;;;4987387;28;92461;-70
2021/12/11 13:17:15;;;;;;;45.53;29.70;;;;;;;;;;4992514;28;92977;-71
2021/12/11 13:19:44;;;;;;;40.88;29.92;;;;;;;;;;4979474;28;93875;-73
2021/12/11 13:22:16;;;;;;;46.10;30.70;;;;;;;;;;4978953;28;93270;-73
2021/12/11 13:24:48;;;;;;;30.75;23.20;;;;;;;;;;4983101;28;94333;-73
2021/12/11 13:27:16;;;;;;;35.23;22.43;;;;;;;;;;4995173;28;94551;-73
2021/12/11 13:29:46;;;;;;;29.10;21.55;;;;;;;;;;4996206;28;94383;-73
2021/12/11 13:32:17;;;;;;;29.02;21.67;;;;;;;;;;4992181;28;94866;-73
2021/12/11 13:34:45;;;;;;;25.73;21.70;;;;;;;;;;4981860;28;96228;-72
2021/12/11 13:37:12;;;;;;;33.20;22.77;;;;;;;;;;4988382;28;92628;-73
2021/12/11 13:39:38;;;;;;;32.33;23.48;;;;;;;;;;4987638;28;94844;-73
2021/12/11 13:42:06;;;;;;;28.42;23.02;;;;;;;;;;4980416;28;94251;-73
2021/12/11 13:44:40;;;;;;;25.73;22.33;;;;;;;;;;4982924;28;93946;-73
2021/12/11 13:47:09;;;;;;;33.42;26.42;;;;;;;;;;5006060;28;94275;-72
2021/12/11 13:49:36;;;;;;;25.90;21.98;;;;;;;;;;4986337;28;94493;-73
2021/12/11 13:52:03;;;;;;;32.67;22.30;;;;;;;;;;4984541;27;91837;-73
2021/12/11 13:54:29;;;;;;;24.92;20.77;;;;;;;;;;4988363;28;94750;-72
2021/12/11 13:56:59;;;;;;;27.75;20.98;;;;;;;;;;4992002;28;92509;-72
2021/12/11 13:59:26;;;;;;;31.77;22.50;;;;;;;;;;4995622;28;94979;-73
2021/12/11 14:01:54;;;;;;;27.23;20.33;;;;;;;;;;4986558;28;93930;-73
2021/12/11 14:04:21;;;;;;;33.50;21.63;;;;;;;;;;4991625;28;92557;-73
2021/12/11 14:06:58;;;;;;;30.90;21.58;;;;;;;;;;4981489;28;94291;-73
2021/12/11 14:09:25;;;;;;;28.50;21.33;;;;;;;;;;4985821;28;95983;-72
2021/12/11 14:11:52;;;;;;;36.58;21.98;;;;;;;;;;4976557;28;94332;-73
2021/12/11 14:14:19;;;;;;;33.17;21.02;;;;;;;;;;4995289;28;93745;-73
2021/12/11 14:16:47;;;;;;;34.15;22.98;;;;;;;;;;4984856;28;92153;-72
2021/12/11 14:19:15;;;;;;;36.72;22.80;;;;;;;;;;4983223;28;93319;-72
2021/12/11 14:21:42;;;;;;;34.30;23.25;;;;;;;;;;4984966;28;93851;-73
2021/12/11 14:24:09;;;;;;;33.35;22.70;;;;;;;;;;4999305;28;96486;-71
2021/12/11 14:26:37;;;;;;;34.22;22.55;;;;;;;;;;4998430;28;96506;-71
2021/12/11 14:29:07;;;;;;;30.98;23.35;;;;;;;;;;4996536;28;94018;-71
2021/12/11 14:31:34;;;;;;;33.15;23.05;;;;;;;;;;4991905;28;93036;-70
2021/12/11 14:34:02;;;;;;;31.80;23.02;;;;;;;;;;5005267;28;93834;-70
2021/12/11 14:36:29;;;;;;;29.02;21.58;;;;;;;;;;4989602;28;93352;-70